KLEW/LEW METAR and TAF weather

Enter ICAO airport designator
Station Type Date Time Source
KLEW METAR 2022/01/27 19:56 UTC NOAA

KLEW 271956Z AUTO 18005KT 10SM CLR M07/M14 A3028 RMK AO2 SLPNO T10671139 FZRANO


Station Type Date Time Source
KLEW Decoded METAR 2022/01/27 19:56 UTC NOAA

Auburn-Lewiston, ME, United States (KLEW) 44-03N 070-17W
Jan 27, 2022 - 02:56 PM EST / 2022.01.27 1956 UTC
Wind: from the S (180 degrees) at 6 MPH (5 KT):0
Visibility: 10 mile(s):0
Sky conditions: clear
Temperature: 19.9 F (-6.7 C)
Windchill: 12 F (-11 C):1
Dew Point: 7.0 F (-13.9 C)
Relative Humidity: 56%
Pressure (altimeter): 30.28 in. Hg (1025 hPa)
ob: KLEW 271956Z AUTO 18005KT 10SM CLR M07/M14 A3028 RMK AO2 SLPNO T10671139 FZRANO
cycle: 20

Station Type Date Time Source
KLEW TAF UTC NOAA

Error!

Example: see airport list